Accueil
METAR-TAF:

METAR-TAF

Aéroports :

Flag Island, Minnesota, États-Unis

latitude: 49-19N, longitude: 094-54W, altitude: 329 m

Observation

Le bulletin a été fait il y a 29 minutes, à 06:35 UTC
Vent 15 kt de sud avec des rafales jusqu'à 20 kt
Température -16°C
Humidité 78%
Pression 1009 hPa

METAR: KFGN 200635Z AUTO 17015G20KT M16/M19 A2981 RMK AO2 PWINO

Heure: 01:04 (07:04 UTC)


TAF: absent

Observations et prévisions météorologiques de plus de 4000 aéroports (messages METAR et TAF).

Les stations disponibles sont représentées par des disques jaunes et rouges sur la carte.

Passer la souris dessus pour voir le nom de la station.

Cliquer dessus pour voir les observations et prévisions météorologiques.

Pour changer de carte: cliquez sur les boutons verts avec une croix noire pour zoomer, sur le bouton vert avec un tiret pour effectuer un zoom arrière, ou sur les flèches vertes pour les cartes adjacentes.


METAR-TAF: